KJST/JST METAR and TAF weather

Enter ICAO airport designator
Station Type Date Time Source
KJST METAR 2022/06/26 07:54 UTC NOAA

KJST 260754Z AUTO 17005KT 10SM FEW050 19/17 A3013 RMK AO2 SLP184 T01940172 TSNO


Station Type Date Time Source
KJST Decoded METAR 2022/06/26 07:54 UTC NOAA

JOHNSTOWN-CAMBRIA CO AIRPORT , PA, United States (KJST) 40-19N 078-50W 694M
Jun 26, 2022 - 03:54 AM EDT / 2022.06.26 0754 UTC
Wind: from the S (170 degrees) at 6 MPH (5 KT):0
Visibility: 10 mile(s):0
Sky conditions: mostly clear
Temperature: 66.9 F (19.4 C)
Dew Point: 63.0 F (17.2 C)
Relative Humidity: 87%
Pressure (altimeter): 30.13 in. Hg (1020 hPa)
ob: KJST 260754Z AUTO 17005KT 10SM FEW050 19/17 A3013 RMK AO2 SLP184 T01940172 TSNO
cycle: 8

Station Type Date Time Source
KJST TAF 2022/06/26 06:33 UTC NOAA

TAF KJST 260531Z 2606/2706 22005KT P6SM SKC
FM261900 21008KT P6SM VCSH BKN080
FM262300 21009KT P6SM -SHRA OVC040

Example: see airport list